sensor_id;sensor_type;location;lat;lon;timestamp;P1;durP1;ratioP1;P2;durP2;ratioP2
47555;SDS011;33291;46.222;26.460;2023-08-12T00:00:50;7.88;;;5.18;;
47555;SDS011;33291;46.222;26.460;2023-08-12T00:03:15;10.00;;;5.57;;
47555;SDS011;33291;46.222;26.460;2023-08-12T00:05:41;5.90;;;4.95;;
47555;SDS011;33291;46.222;26.460;2023-08-12T00:08:08;5.80;;;4.80;;
47555;SDS011;33291;46.222;26.460;2023-08-12T00:10:33;6.65;;;5.70;;
47555;SDS011;33291;46.222;26.460;2023-08-12T00:12:59;8.27;;;5.38;;
47555;SDS011;33291;46.222;26.460;2023-08-12T00:15:24;5.72;;;4.78;;
47555;SDS011;33291;46.222;26.460;2023-08-12T00:17:50;5.80;;;5.20;;
47555;SDS011;33291;46.222;26.460;2023-08-12T00:20:16;6.70;;;5.30;;
47555;SDS011;33291;46.222;26.460;2023-08-12T00:22:41;8.07;;;5.47;;
47555;SDS011;33291;46.222;26.460;2023-08-12T00:25:07;6.72;;;5.32;;
47555;SDS011;33291;46.222;26.460;2023-08-12T00:27:33;12.20;;;7.57;;
47555;SDS011;33291;46.222;26.460;2023-08-12T00:29:58;7.45;;;5.57;;
47555;SDS011;33291;46.222;26.460;2023-08-12T00:32:24;9.25;;;5.93;;
47555;SDS011;33291;46.222;26.460;2023-08-12T00:34:49;7.72;;;5.43;;
47555;SDS011;33291;46.222;26.460;2023-08-12T00:37:15;10.30;;;5.78;;
47555;SDS011;33291;46.222;26.460;2023-08-12T00:39:40;6.75;;;6.05;;
47555;SDS011;33291;46.222;26.460;2023-08-12T00:42:06;7.20;;;5.88;;
47555;SDS011;33291;46.222;26.460;2023-08-12T00:44:31;8.57;;;6.15;;
47555;SDS011;33291;46.222;26.460;2023-08-12T00:46:57;7.22;;;6.03;;
47555;SDS011;33291;46.222;26.460;2023-08-12T00:49:23;6.57;;;5.88;;
47555;SDS011;33291;46.222;26.460;2023-08-12T00:51:49;10.27;;;5.90;;
47555;SDS011;33291;46.222;26.460;2023-08-12T00:54:16;7.13;;;6.28;;
47555;SDS011;33291;46.222;26.460;2023-08-12T00:56:42;11.25;;;6.80;;
47555;SDS011;33291;46.222;26.460;2023-08-12T00:59:09;8.32;;;6.13;;
47555;SDS011;33291;46.222;26.460;2023-08-12T01:01:35;8.07;;;6.10;;
47555;SDS011;33291;46.222;26.460;2023-08-12T01:04:05;14.65;;;6.20;;
47555;SDS011;33291;46.222;26.460;2023-08-12T01:06:30;8.82;;;6.43;;
47555;SDS011;33291;46.222;26.460;2023-08-12T01:08:56;12.32;;;6.50;;
47555;SDS011;33291;46.222;26.460;2023-08-12T01:11:29;6.72;;;6.00;;
47555;SDS011;33291;46.222;26.460;2023-08-12T01:16:36;8.95;;;6.57;;
47555;SDS011;33291;46.222;26.460;2023-08-12T01:19:05;8.77;;;6.75;;
47555;SDS011;33291;46.222;26.460;2023-08-12T01:21:34;6.78;;;6.18;;
47555;SDS011;33291;46.222;26.460;2023-08-12T01:24:07;8.35;;;7.25;;
47555;SDS011;33291;46.222;26.460;2023-08-12T01:26:32;9.65;;;6.95;;
47555;SDS011;33291;46.222;26.460;2023-08-12T01:28:58;7.50;;;6.45;;
47555;SDS011;33291;46.222;26.460;2023-08-12T01:31:27;7.45;;;6.57;;
47555;SDS011;33291;46.222;26.460;2023-08-12T01:36:41;8.77;;;7.10;;
47555;SDS011;33291;46.222;26.460;2023-08-12T01:39:11;10.30;;;7.50;;
47555;SDS011;33291;46.222;26.460;2023-08-12T01:41:37;9.30;;;7.55;;
47555;SDS011;33291;46.222;26.460;2023-08-12T01:44:03;10.50;;;7.82;;
47555;SDS011;33291;46.222;26.460;2023-08-12T01:46:29;13.20;;;8.00;;
47555;SDS011;33291;46.222;26.460;2023-08-12T01:48:56;9.30;;;7.45;;
47555;SDS011;33291;46.222;26.460;2023-08-12T01:51:21;9.05;;;7.72;;
47555;SDS011;33291;46.222;26.460;2023-08-12T01:53:47;10.07;;;8.65;;
47555;SDS011;33291;46.222;26.460;2023-08-12T01:56:12;9.32;;;7.68;;
47555;SDS011;33291;46.222;26.460;2023-08-12T01:58:38;11.38;;;7.20;;
47555;SDS011;33291;46.222;26.460;2023-08-12T02:01:03;10.45;;;8.50;;
47555;SDS011;33291;46.222;26.460;2023-08-12T02:03:29;9.10;;;8.10;;
47555;SDS011;33291;46.222;26.460;2023-08-12T02:05:54;10.23;;;8.80;;
47555;SDS011;33291;46.222;26.460;2023-08-12T02:08:20;10.82;;;8.43;;
47555;SDS011;33291;46.222;26.460;2023-08-12T02:10:45;10.48;;;8.77;;
47555;SDS011;33291;46.222;26.460;2023-08-12T02:13:11;9.95;;;8.38;;
47555;SDS011;33291;46.222;26.460;2023-08-12T02:15:36;10.45;;;8.07;;
47555;SDS011;33291;46.222;26.460;2023-08-12T02:18:01;10.02;;;8.38;;
47555;SDS011;33291;46.222;26.460;2023-08-12T02:20:28;11.68;;;8.90;;
47555;SDS011;33291;46.222;26.460;2023-08-12T02:22:53;9.48;;;8.32;;
47555;SDS011;33291;46.222;26.460;2023-08-12T02:25:19;10.18;;;8.90;;
47555;SDS011;33291;46.222;26.460;2023-08-12T02:27:44;10.45;;;8.65;;
47555;SDS011;33291;46.222;26.460;2023-08-12T02:30:10;9.07;;;7.95;;
47555;SDS011;33291;46.222;26.460;2023-08-12T02:32:36;9.88;;;8.63;;
47555;SDS011;33291;46.222;26.460;2023-08-12T02:35:01;9.63;;;8.63;;
47555;SDS011;33291;46.222;26.460;2023-08-12T02:37:27;9.88;;;8.68;;
47555;SDS011;33291;46.222;26.460;2023-08-12T02:39:52;11.88;;;8.90;;
47555;SDS011;33291;46.222;26.460;2023-08-12T02:42:17;12.82;;;8.75;;
47555;SDS011;33291;46.222;26.460;2023-08-12T02:44:43;11.32;;;8.85;;
47555;SDS011;33291;46.222;26.460;2023-08-12T02:47:08;11.73;;;9.45;;
47555;SDS011;33291;46.222;26.460;2023-08-12T02:49:34;11.45;;;9.45;;
47555;SDS011;33291;46.222;26.460;2023-08-12T02:51:59;11.20;;;10.02;;
47555;SDS011;33291;46.222;26.460;2023-08-12T02:54:25;11.43;;;10.18;;
47555;SDS011;33291;46.222;26.460;2023-08-12T02:56:50;10.73;;;9.63;;
47555;SDS011;33291;46.222;26.460;2023-08-12T02:59:16;10.70;;;9.55;;
47555;SDS011;33291;46.222;26.460;2023-08-12T03:01:41;11.35;;;9.93;;
47555;SDS011;33291;46.222;26.460;2023-08-12T03:04:07;14.18;;;10.30;;
47555;SDS011;33291;46.222;26.460;2023-08-12T03:06:33;14.57;;;11.48;;
47555;SDS011;33291;46.222;26.460;2023-08-12T03:08:58;12.77;;;10.65;;
47555;SDS011;33291;46.222;26.460;2023-08-12T03:11:24;12.18;;;10.88;;
47555;SDS011;33291;46.222;26.460;2023-08-12T03:13:49;13.57;;;11.65;;
47555;SDS011;33291;46.222;26.460;2023-08-12T03:16:15;14.88;;;11.38;;
47555;SDS011;33291;46.222;26.460;2023-08-12T03:18:40;16.00;;;11.70;;
47555;SDS011;33291;46.222;26.460;2023-08-12T03:21:07;14.73;;;11.02;;
47555;SDS011;33291;46.222;26.460;2023-08-12T03:23:34;11.90;;;10.65;;
47555;SDS011;33291;46.222;26.460;2023-08-12T03:26:00;13.52;;;11.63;;
47555;SDS011;33291;46.222;26.460;2023-08-12T03:28:26;15.93;;;11.50;;
47555;SDS011;33291;46.222;26.460;2023-08-12T03:30:51;14.30;;;12.40;;
47555;SDS011;33291;46.222;26.460;2023-08-12T03:33:18;13.45;;;12.15;;
47555;SDS011;33291;46.222;26.460;2023-08-12T03:35:46;13.18;;;11.23;;
47555;SDS011;33291;46.222;26.460;2023-08-12T03:38:13;14.13;;;12.73;;
47555;SDS011;33291;46.222;26.460;2023-08-12T03:40:39;13.90;;;12.38;;
47555;SDS011;33291;46.222;26.460;2023-08-12T03:43:05;13.73;;;12.23;;
47555;SDS011;33291;46.222;26.460;2023-08-12T03:45:31;14.38;;;11.80;;
47555;SDS011;33291;46.222;26.460;2023-08-12T03:47:56;15.35;;;12.52;;
47555;SDS011;33291;46.222;26.460;2023-08-12T03:50:22;13.65;;;12.20;;
47555;SDS011;33291;46.222;26.460;2023-08-12T03:52:47;14.18;;;12.77;;
47555;SDS011;33291;46.222;26.460;2023-08-12T03:55:13;13.80;;;12.35;;
47555;SDS011;33291;46.222;26.460;2023-08-12T03:57:38;20.05;;;12.48;;
47555;SDS011;33291;46.222;26.460;2023-08-12T04:00:04;13.35;;;12.00;;
47555;SDS011;33291;46.222;26.460;2023-08-12T04:02:32;14.52;;;12.88;;
47555;SDS011;33291;46.222;26.460;2023-08-12T04:04:57;14.27;;;12.35;;
47555;SDS011;33291;46.222;26.460;2023-08-12T04:07:23;14.85;;;12.60;;
47555;SDS011;33291;46.222;26.460;2023-08-12T04:09:49;16.23;;;13.75;;
47555;SDS011;33291;46.222;26.460;2023-08-12T04:12:14;17.02;;;13.40;;
47555;SDS011;33291;46.222;26.460;2023-08-12T04:14:40;16.08;;;12.80;;
47555;SDS011;33291;46.222;26.460;2023-08-12T04:17:06;16.08;;;13.70;;
47555;SDS011;33291;46.222;26.460;2023-08-12T04:19:31;14.73;;;13.02;;
47555;SDS011;33291;46.222;26.460;2023-08-12T04:21:56;13.52;;;12.23;;
47555;SDS011;33291;46.222;26.460;2023-08-12T04:24:22;14.88;;;12.57;;
47555;SDS011;33291;46.222;26.460;2023-08-12T04:26:47;15.25;;;12.40;;
47555;SDS011;33291;46.222;26.460;2023-08-12T04:29:13;14.40;;;12.90;;
47555;SDS011;33291;46.222;26.460;2023-08-12T04:31:38;14.38;;;12.95;;
47555;SDS011;33291;46.222;26.460;2023-08-12T04:34:05;18.77;;;13.88;;
47555;SDS011;33291;46.222;26.460;2023-08-12T04:36:31;16.88;;;13.90;;
47555;SDS011;33291;46.222;26.460;2023-08-12T04:38:56;14.90;;;13.40;;
47555;SDS011;33291;46.222;26.460;2023-08-12T04:41:22;16.17;;;14.10;;
47555;SDS011;33291;46.222;26.460;2023-08-12T04:43:49;16.85;;;12.88;;
47555;SDS011;33291;46.222;26.460;2023-08-12T04:46:14;21.52;;;13.63;;
47555;SDS011;33291;46.222;26.460;2023-08-12T04:48:40;15.90;;;12.70;;
47555;SDS011;33291;46.222;26.460;2023-08-12T04:51:05;16.02;;;13.10;;
47555;SDS011;33291;46.222;26.460;2023-08-12T04:53:32;20.50;;;13.68;;
47555;SDS011;33291;46.222;26.460;2023-08-12T04:55:57;16.30;;;13.75;;
47555;SDS011;33291;46.222;26.460;2023-08-12T04:58:23;15.27;;;13.68;;
47555;SDS011;33291;46.222;26.460;2023-08-12T05:00:49;17.13;;;14.05;;
47555;SDS011;33291;46.222;26.460;2023-08-12T05:03:17;16.00;;;13.27;;
47555;SDS011;33291;46.222;26.460;2023-08-12T05:05:42;18.88;;;12.77;;
47555;SDS011;33291;46.222;26.460;2023-08-12T05:08:08;15.25;;;13.75;;
47555;SDS011;33291;46.222;26.460;2023-08-12T05:10:33;16.40;;;14.80;;
47555;SDS011;33291;46.222;26.460;2023-08-12T05:12:59;16.23;;;14.52;;
47555;SDS011;33291;46.222;26.460;2023-08-12T05:15:24;16.50;;;13.80;;
47555;SDS011;33291;46.222;26.460;2023-08-12T05:17:50;16.13;;;14.27;;
47555;SDS011;33291;46.222;26.460;2023-08-12T05:20:15;15.65;;;14.05;;
47555;SDS011;33291;46.222;26.460;2023-08-12T05:22:41;17.67;;;14.25;;
47555;SDS011;33291;46.222;26.460;2023-08-12T05:25:07;15.93;;;13.80;;
47555;SDS011;33291;46.222;26.460;2023-08-12T05:27:32;17.48;;;13.77;;
47555;SDS011;33291;46.222;26.460;2023-08-12T05:29:58;15.75;;;14.25;;
47555;SDS011;33291;46.222;26.460;2023-08-12T05:32:23;15.88;;;14.27;;
47555;SDS011;33291;46.222;26.460;2023-08-12T05:34:50;14.85;;;13.35;;
47555;SDS011;33291;46.222;26.460;2023-08-12T05:37:17;21.60;;;13.98;;
47555;SDS011;33291;46.222;26.460;2023-08-12T05:39:43;16.65;;;13.60;;
47555;SDS011;33291;46.222;26.460;2023-08-12T05:42:08;18.15;;;14.05;;
47555;SDS011;33291;46.222;26.460;2023-08-12T05:44:34;15.90;;;14.23;;
47555;SDS011;33291;46.222;26.460;2023-08-12T05:46:59;16.58;;;12.43;;
47555;SDS011;33291;46.222;26.460;2023-08-12T05:49:25;15.60;;;13.57;;
47555;SDS011;33291;46.222;26.460;2023-08-12T05:51:50;14.55;;;12.55;;
47555;SDS011;33291;46.222;26.460;2023-08-12T05:54:16;15.02;;;12.93;;
47555;SDS011;33291;46.222;26.460;2023-08-12T05:56:41;15.98;;;12.20;;
47555;SDS011;33291;46.222;26.460;2023-08-12T05:59:06;15.38;;;12.50;;
47555;SDS011;33291;46.222;26.460;2023-08-12T06:01:32;15.10;;;12.25;;
47555;SDS011;33291;46.222;26.460;2023-08-12T06:03:57;14.10;;;12.43;;
47555;SDS011;33291;46.222;26.460;2023-08-12T06:06:23;15.88;;;12.48;;
47555;SDS011;33291;46.222;26.460;2023-08-12T06:08:48;18.80;;;13.10;;
47555;SDS011;33291;46.222;26.460;2023-08-12T06:11:14;16.33;;;12.75;;
47555;SDS011;33291;46.222;26.460;2023-08-12T06:13:39;17.55;;;11.85;;
47555;SDS011;33291;46.222;26.460;2023-08-12T06:16:04;16.67;;;12.68;;
47555;SDS011;33291;46.222;26.460;2023-08-12T06:18:30;17.98;;;13.40;;
47555;SDS011;33291;46.222;26.460;2023-08-12T06:20:55;11.95;;;10.38;;
47555;SDS011;33291;46.222;26.460;2023-08-12T06:23:21;12.80;;;9.75;;
47555;SDS011;33291;46.222;26.460;2023-08-12T06:25:46;13.45;;;10.85;;
47555;SDS011;33291;46.222;26.460;2023-08-12T06:28:12;15.82;;;10.85;;
47555;SDS011;33291;46.222;26.460;2023-08-12T06:30:37;14.43;;;10.63;;
47555;SDS011;33291;46.222;26.460;2023-08-12T06:33:03;11.38;;;8.10;;
47555;SDS011;33291;46.222;26.460;2023-08-12T06:35:28;9.48;;;6.30;;
47555;SDS011;33291;46.222;26.460;2023-08-12T06:37:54;16.75;;;7.10;;
47555;SDS011;33291;46.222;26.460;2023-08-12T06:40:19;12.70;;;6.85;;
47555;SDS011;33291;46.222;26.460;2023-08-12T06:42:45;11.43;;;6.55;;
47555;SDS011;33291;46.222;26.460;2023-08-12T06:45:10;9.98;;;6.32;;
47555;SDS011;33291;46.222;26.460;2023-08-12T06:47:36;9.68;;;6.10;;
47555;SDS011;33291;46.222;26.460;2023-08-12T06:50:02;10.43;;;4.75;;
47555;SDS011;33291;46.222;26.460;2023-08-12T06:52:27;10.73;;;5.03;;
47555;SDS011;33291;46.222;26.460;2023-08-12T06:54:53;11.07;;;5.07;;
47555;SDS011;33291;46.222;26.460;2023-08-12T06:57:18;9.20;;;4.57;;
47555;SDS011;33291;46.222;26.460;2023-08-12T06:59:44;7.70;;;4.50;;
47555;SDS011;33291;46.222;26.460;2023-08-12T07:02:09;14.35;;;5.43;;
47555;SDS011;33291;46.222;26.460;2023-08-12T07:04:35;11.48;;;4.35;;
47555;SDS011;33291;46.222;26.460;2023-08-12T07:07:00;11.63;;;4.22;;
47555;SDS011;33291;46.222;26.460;2023-08-12T07:09:26;10.18;;;4.22;;
47555;SDS011;33291;46.222;26.460;2023-08-12T07:11:51;10.95;;;3.78;;
47555;SDS011;33291;46.222;26.460;2023-08-12T07:14:17;6.07;;;3.90;;
47555;SDS011;33291;46.222;26.460;2023-08-12T07:16:42;8.57;;;4.20;;
47555;SDS011;33291;46.222;26.460;2023-08-12T07:19:08;9.82;;;3.28;;
47555;SDS011;33291;46.222;26.460;2023-08-12T07:21:33;5.97;;;4.07;;
47555;SDS011;33291;46.222;26.460;2023-08-12T07:23:59;8.77;;;4.50;;
47555;SDS011;33291;46.222;26.460;2023-08-12T07:26:24;13.52;;;4.47;;
47555;SDS011;33291;46.222;26.460;2023-08-12T07:28:50;13.80;;;4.00;;
47555;SDS011;33291;46.222;26.460;2023-08-12T07:31:15;8.45;;;3.28;;
47555;SDS011;33291;46.222;26.460;2023-08-12T07:33:41;6.97;;;3.80;;
47555;SDS011;33291;46.222;26.460;2023-08-12T07:36:06;10.38;;;3.90;;
47555;SDS011;33291;46.222;26.460;2023-08-12T07:38:32;8.35;;;3.70;;
47555;SDS011;33291;46.222;26.460;2023-08-12T07:40:57;8.57;;;4.10;;
47555;SDS011;33291;46.222;26.460;2023-08-12T07:43:23;8.02;;;4.07;;
47555;SDS011;33291;46.222;26.460;2023-08-12T07:45:52;6.93;;;3.67;;
47555;SDS011;33291;46.222;26.460;2023-08-12T07:48:19;13.82;;;4.43;;
47555;SDS011;33291;46.222;26.460;2023-08-12T07:50:47;12.02;;;4.28;;
47555;SDS011;33291;46.222;26.460;2023-08-12T07:53:19;10.85;;;5.45;;
47555;SDS011;33291;46.222;26.460;2023-08-12T07:55:45;10.73;;;4.60;;
47555;SDS011;33291;46.222;26.460;2023-08-12T07:58:11;6.57;;;4.22;;
47555;SDS011;33291;46.222;26.460;2023-08-12T08:00:36;6.43;;;4.03;;
47555;SDS011;33291;46.222;26.460;2023-08-12T08:03:02;8.80;;;3.78;;
47555;SDS011;33291;46.222;26.460;2023-08-12T08:05:27;10.73;;;4.20;;
47555;SDS011;33291;46.222;26.460;2023-08-12T08:07:53;8.10;;;3.92;;
47555;SDS011;33291;46.222;26.460;2023-08-12T08:10:18;7.78;;;4.32;;
47555;SDS011;33291;46.222;26.460;2023-08-12T08:12:43;7.43;;;4.45;;
47555;SDS011;33291;46.222;26.460;2023-08-12T08:15:09;7.85;;;4.50;;
47555;SDS011;33291;46.222;26.460;2023-08-12T08:17:35;6.85;;;4.55;;
47555;SDS011;33291;46.222;26.460;2023-08-12T08:20:00;8.23;;;3.85;;
47555;SDS011;33291;46.222;26.460;2023-08-12T08:22:26;8.70;;;4.60;;
47555;SDS011;33291;46.222;26.460;2023-08-12T08:24:51;11.00;;;4.43;;
47555;SDS011;33291;46.222;26.460;2023-08-12T08:27:17;6.03;;;4.20;;
47555;SDS011;33291;46.222;26.460;2023-08-12T08:29:42;11.63;;;4.38;;
47555;SDS011;33291;46.222;26.460;2023-08-12T08:32:07;5.13;;;3.67;;
47555;SDS011;33291;46.222;26.460;2023-08-12T08:34:33;7.35;;;3.85;;
47555;SDS011;33291;46.222;26.460;2023-08-12T08:36:59;9.82;;;4.60;;
47555;SDS011;33291;46.222;26.460;2023-08-12T08:39:24;7.63;;;4.82;;
47555;SDS011;33291;46.222;26.460;2023-08-12T08:41:50;8.15;;;4.72;;
47555;SDS011;33291;46.222;26.460;2023-08-12T08:44:18;6.50;;;4.10;;
47555;SDS011;33291;46.222;26.460;2023-08-12T08:46:49;11.63;;;4.40;;
47555;SDS011;33291;46.222;26.460;2023-08-12T08:49:17;8.93;;;4.97;;
47555;SDS011;33291;46.222;26.460;2023-08-12T08:51:43;13.80;;;4.65;;
47555;SDS011;33291;46.222;26.460;2023-08-12T08:54:11;5.45;;;3.85;;
47555;SDS011;33291;46.222;26.460;2023-08-12T08:56:37;10.23;;;4.80;;
47555;SDS011;33291;46.222;26.460;2023-08-12T08:59:03;7.00;;;4.38;;
47555;SDS011;33291;46.222;26.460;2023-08-12T09:01:29;7.88;;;4.13;;
47555;SDS011;33291;46.222;26.460;2023-08-12T09:03:56;6.32;;;4.40;;
47555;SDS011;33291;46.222;26.460;2023-08-12T09:06:23;7.68;;;4.35;;
47555;SDS011;33291;46.222;26.460;2023-08-12T09:08:53;8.10;;;4.55;;
47555;SDS011;33291;46.222;26.460;2023-08-12T09:11:19;8.77;;;4.38;;
47555;SDS011;33291;46.222;26.460;2023-08-12T09:13:46;9.93;;;4.18;;
47555;SDS011;33291;46.222;26.460;2023-08-12T09:16:12;9.82;;;4.50;;
47555;SDS011;33291;46.222;26.460;2023-08-12T09:18:38;6.05;;;3.85;;
47555;SDS011;33291;46.222;26.460;2023-08-12T09:21:03;7.05;;;4.57;;
47555;SDS011;33291;46.222;26.460;2023-08-12T09:23:39;6.10;;;3.85;;
47555;SDS011;33291;46.222;26.460;2023-08-12T09:26:19;5.45;;;3.97;;
47555;SDS011;33291;46.222;26.460;2023-08-12T09:28:46;9.82;;;4.65;;
47555;SDS011;33291;46.222;26.460;2023-08-12T09:33:51;8.27;;;4.45;;
47555;SDS011;33291;46.222;26.460;2023-08-12T09:36:18;9.15;;;5.00;;
47555;SDS011;33291;46.222;26.460;2023-08-12T09:38:46;10.00;;;4.30;;
47555;SDS011;33291;46.222;26.460;2023-08-12T09:41:12;7.50;;;4.80;;
47555;SDS011;33291;46.222;26.460;2023-08-12T09:43:41;6.75;;;4.25;;
47555;SDS011;33291;46.222;26.460;2023-08-12T09:46:10;8.98;;;4.72;;
47555;SDS011;33291;46.222;26.460;2023-08-12T09:48:38;6.78;;;3.97;;
47555;SDS011;33291;46.222;26.460;2023-08-12T09:51:03;7.35;;;4.38;;
47555;SDS011;33291;46.222;26.460;2023-08-12T09:53:29;9.55;;;5.15;;
47555;SDS011;33291;46.222;26.460;2023-08-12T09:55:55;9.57;;;5.10;;
47555;SDS011;33291;46.222;26.460;2023-08-12T09:58:30;9.98;;;5.53;;
47555;SDS011;33291;46.222;26.460;2023-08-12T10:00:58;6.65;;;4.30;;
47555;SDS011;33291;46.222;26.460;2023-08-12T10:03:24;6.97;;;6.05;;
47555;SDS011;33291;46.222;26.460;2023-08-12T10:05:51;12.35;;;5.13;;
47555;SDS011;33291;46.222;26.460;2023-08-12T10:08:17;6.28;;;4.38;;
47555;SDS011;33291;46.222;26.460;2023-08-12T10:10:43;6.93;;;4.60;;
47555;SDS011;33291;46.222;26.460;2023-08-12T10:13:10;8.75;;;4.22;;
47555;SDS011;33291;46.222;26.460;2023-08-12T10:15:36;7.55;;;4.20;;
47555;SDS011;33291;46.222;26.460;2023-08-12T10:18:03;7.20;;;5.18;;
47555;SDS011;33291;46.222;26.460;2023-08-12T10:20:31;7.38;;;4.82;;
47555;SDS011;33291;46.222;26.460;2023-08-12T10:22:57;6.28;;;4.45;;
47555;SDS011;33291;46.222;26.460;2023-08-12T10:25:24;9.10;;;4.35;;
47555;SDS011;33291;46.222;26.460;2023-08-12T10:27:56;7.90;;;4.35;;
47555;SDS011;33291;46.222;26.460;2023-08-12T10:30:21;8.88;;;5.40;;
47555;SDS011;33291;46.222;26.460;2023-08-12T10:32:47;7.30;;;4.72;;
47555;SDS011;33291;46.222;26.460;2023-08-12T10:35:12;7.20;;;4.15;;
47555;SDS011;33291;46.222;26.460;2023-08-12T10:37:38;8.23;;;4.80;;
47555;SDS011;33291;46.222;26.460;2023-08-12T10:40:05;5.45;;;3.60;;
47555;SDS011;33291;46.222;26.460;2023-08-12T10:45:07;7.32;;;4.68;;
47555;SDS011;33291;46.222;26.460;2023-08-12T10:47:37;5.88;;;4.57;;
47555;SDS011;33291;46.222;26.460;2023-08-12T10:50:10;8.45;;;4.32;;
47555;SDS011;33291;46.222;26.460;2023-08-12T10:52:42;7.63;;;4.80;;
47555;SDS011;33291;46.222;26.460;2023-08-12T10:57:43;5.88;;;4.20;;
47555;SDS011;33291;46.222;26.460;2023-08-12T11:00:15;5.80;;;4.25;;
47555;SDS011;33291;46.222;26.460;2023-08-12T11:02:54;7.53;;;4.55;;
47555;SDS011;33291;46.222;26.460;2023-08-12T11:05:21;6.40;;;4.78;;
47555;SDS011;33291;46.222;26.460;2023-08-12T11:07:57;7.88;;;4.70;;
47555;SDS011;33291;46.222;26.460;2023-08-12T11:10:26;8.82;;;4.53;;
47555;SDS011;33291;46.222;26.460;2023-08-12T11:15:18;5.65;;;4.25;;
47555;SDS011;33291;46.222;26.460;2023-08-12T11:17:54;6.18;;;4.60;;
47555;SDS011;33291;46.222;26.460;2023-08-12T11:20:19;8.82;;;4.22;;
47555;SDS011;33291;46.222;26.460;2023-08-12T11:22:45;6.20;;;4.57;;
47555;SDS011;33291;46.222;26.460;2023-08-12T11:25:13;5.90;;;4.00;;
47555;SDS011;33291;46.222;26.460;2023-08-12T11:27:42;12.45;;;4.68;;
47555;SDS011;33291;46.222;26.460;2023-08-12T11:30:13;13.98;;;4.70;;
47555;SDS011;33291;46.222;26.460;2023-08-12T11:32:43;10.98;;;4.47;;
47555;SDS011;33291;46.222;26.460;2023-08-12T11:35:13;6.47;;;4.22;;
47555;SDS011;33291;46.222;26.460;2023-08-12T11:37:41;7.38;;;4.40;;
47555;SDS011;33291;46.222;26.460;2023-08-12T11:40:08;6.03;;;4.22;;
47555;SDS011;33291;46.222;26.460;2023-08-12T11:42:39;7.97;;;3.72;;
47555;SDS011;33291;46.222;26.460;2023-08-12T11:45:06;6.95;;;4.05;;
47555;SDS011;33291;46.222;26.460;2023-08-12T11:47:32;7.65;;;4.00;;
47555;SDS011;33291;46.222;26.460;2023-08-12T11:50:05;8.75;;;4.05;;
47555;SDS011;33291;46.222;26.460;2023-08-12T11:52:33;6.15;;;4.20;;
47555;SDS011;33291;46.222;26.460;2023-08-12T11:54:59;8.43;;;4.05;;
47555;SDS011;33291;46.222;26.460;2023-08-12T11:57:28;8.07;;;4.40;;
47555;SDS011;33291;46.222;26.460;2023-08-12T12:00:00;7.45;;;4.28;;
47555;SDS011;33291;46.222;26.460;2023-08-12T12:02:28;8.75;;;3.95;;
47555;SDS011;33291;46.222;26.460;2023-08-12T12:04:53;4.82;;;4.03;;
47555;SDS011;33291;46.222;26.460;2023-08-12T12:07:25;9.88;;;4.50;;
47555;SDS011;33291;46.222;26.460;2023-08-12T12:09:55;7.03;;;4.25;;
47555;SDS011;33291;46.222;26.460;2023-08-12T12:12:24;6.63;;;4.32;;
47555;SDS011;33291;46.222;26.460;2023-08-12T12:14:53;5.00;;;3.35;;
47555;SDS011;33291;46.222;26.460;2023-08-12T12:17:22;5.05;;;3.83;;
47555;SDS011;33291;46.222;26.460;2023-08-12T12:19:57;6.97;;;4.18;;
47555;SDS011;33291;46.222;26.460;2023-08-12T12:22:30;7.80;;;3.92;;
47555;SDS011;33291;46.222;26.460;2023-08-12T12:25:05;7.20;;;4.20;;
47555;SDS011;33291;46.222;26.460;2023-08-12T12:27:32;6.10;;;4.15;;
47555;SDS011;33291;46.222;26.460;2023-08-12T12:29:59;5.45;;;4.18;;
47555;SDS011;33291;46.222;26.460;2023-08-12T12:32:25;6.15;;;4.18;;
47555;SDS011;33291;46.222;26.460;2023-08-12T12:34:51;7.13;;;4.18;;
47555;SDS011;33291;46.222;26.460;2023-08-12T12:37:17;6.75;;;4.22;;
47555;SDS011;33291;46.222;26.460;2023-08-12T12:39:42;5.32;;;3.20;;
47555;SDS011;33291;46.222;26.460;2023-08-12T12:42:08;6.43;;;3.67;;
47555;SDS011;33291;46.222;26.460;2023-08-12T12:44:35;5.25;;;3.58;;
47555;SDS011;33291;46.222;26.460;2023-08-12T12:47:00;12.23;;;4.28;;
47555;SDS011;33291;46.222;26.460;2023-08-12T12:49:26;5.53;;;3.53;;
47555;SDS011;33291;46.222;26.460;2023-08-12T12:51:53;5.57;;;3.75;;
47555;SDS011;33291;46.222;26.460;2023-08-12T12:54:18;6.68;;;4.30;;
47555;SDS011;33291;46.222;26.460;2023-08-12T12:56:44;5.00;;;4.13;;
47555;SDS011;33291;46.222;26.460;2023-08-12T12:59:10;4.55;;;3.63;;
47555;SDS011;33291;46.222;26.460;2023-08-12T13:01:35;5.60;;;4.18;;
47555;SDS011;33291;46.222;26.460;2023-08-12T13:04:01;5.13;;;4.30;;
47555;SDS011;33291;46.222;26.460;2023-08-12T13:06:27;6.85;;;3.92;;
47555;SDS011;33291;46.222;26.460;2023-08-12T13:08:53;5.45;;;4.00;;
47555;SDS011;33291;46.222;26.460;2023-08-12T13:11:18;7.18;;;3.83;;
47555;SDS011;33291;46.222;26.460;2023-08-12T13:13:44;4.22;;;3.30;;
47555;SDS011;33291;46.222;26.460;2023-08-12T13:16:09;5.00;;;3.85;;
47555;SDS011;33291;46.222;26.460;2023-08-12T13:18:35;4.95;;;3.92;;
47555;SDS011;33291;46.222;26.460;2023-08-12T13:21:00;6.05;;;3.90;;
47555;SDS011;33291;46.222;26.460;2023-08-12T13:23:26;4.55;;;3.58;;
47555;SDS011;33291;46.222;26.460;2023-08-12T13:25:52;5.93;;;4.00;;
47555;SDS011;33291;46.222;26.460;2023-08-12T13:28:17;5.75;;;3.95;;
47555;SDS011;33291;46.222;26.460;2023-08-12T13:30:44;7.35;;;4.00;;
47555;SDS011;33291;46.222;26.460;2023-08-12T13:33:10;4.15;;;3.63;;
47555;SDS011;33291;46.222;26.460;2023-08-12T13:35:35;5.13;;;3.88;;
47555;SDS011;33291;46.222;26.460;2023-08-12T13:38:01;6.28;;;3.90;;
47555;SDS011;33291;46.222;26.460;2023-08-12T13:40:26;4.13;;;3.60;;
47555;SDS011;33291;46.222;26.460;2023-08-12T13:42:52;6.07;;;3.78;;
47555;SDS011;33291;46.222;26.460;2023-08-12T13:45:17;6.22;;;4.97;;
47555;SDS011;33291;46.222;26.460;2023-08-12T13:47:43;12.15;;;7.60;;
47555;SDS011;33291;46.222;26.460;2023-08-12T13:50:09;8.52;;;4.63;;
47555;SDS011;33291;46.222;26.460;2023-08-12T13:52:34;8.68;;;6.18;;
47555;SDS011;33291;46.222;26.460;2023-08-12T13:55:00;8.75;;;6.05;;
47555;SDS011;33291;46.222;26.460;2023-08-12T13:57:26;10.95;;;7.93;;
47555;SDS011;33291;46.222;26.460;2023-08-12T13:59:53;7.88;;;4.28;;
47555;SDS011;33291;46.222;26.460;2023-08-12T14:02:18;6.97;;;4.47;;
47555;SDS011;33291;46.222;26.460;2023-08-12T14:04:44;5.10;;;3.85;;
47555;SDS011;33291;46.222;26.460;2023-08-12T14:07:09;7.47;;;4.30;;
47555;SDS011;33291;46.222;26.460;2023-08-12T14:09:34;6.60;;;4.60;;
47555;SDS011;33291;46.222;26.460;2023-08-12T14:12:00;11.35;;;6.28;;
47555;SDS011;33291;46.222;26.460;2023-08-12T14:14:25;7.70;;;5.22;;
47555;SDS011;33291;46.222;26.460;2023-08-12T14:16:54;10.20;;;5.95;;
47555;SDS011;33291;46.222;26.460;2023-08-12T14:19:20;9.90;;;6.07;;
47555;SDS011;33291;46.222;26.460;2023-08-12T14:21:45;6.15;;;4.63;;
47555;SDS011;33291;46.222;26.460;2023-08-12T14:24:11;9.02;;;4.30;;
47555;SDS011;33291;46.222;26.460;2023-08-12T14:26:38;12.13;;;5.88;;
47555;SDS011;33291;46.222;26.460;2023-08-12T14:29:04;6.78;;;5.20;;
47555;SDS011;33291;46.222;26.460;2023-08-12T14:31:30;6.10;;;4.47;;
47555;SDS011;33291;46.222;26.460;2023-08-12T14:33:55;7.22;;;3.65;;
47555;SDS011;33291;46.222;26.460;2023-08-12T14:36:21;6.18;;;3.90;;